Time;durP1;ratioP1;P1;durP2;ratioP2;P2;SDS_P1;SDS_P2;PMS_P1;PMS_P2;Temp;Humidity;BMP_temperature;BMP_pressure;BME280_temperature;BME280_humidity;BME280_pressure;Samples;Min_cycle;Max_cycle;Signal;HPM_P1;HPM_P2
2021/08/15 00:01:21;;;;;;;;;12.75;11.75;;;;;27.27;35.49;100953.19;5064189;28;45656;-86
2021/08/15 00:03:48;;;;;;;;;11.75;11.50;;;;;27.26;35.90;100964.19;5050113;28;48323;-85
2021/08/15 00:06:13;;;;;;;;;15.00;13.00;;;;;27.28;35.40;100972.88;5052400;28;46195;-85
2021/08/15 00:08:39;;;;;;;;;13.25;12.25;;;;;27.22;36.02;100979.91;5067651;28;45705;-87
2021/08/15 00:11:05;;;;;;;;;12.50;12.00;;;;;27.01;36.06;100953.25;5068661;28;46004;-86
2021/08/15 00:13:30;;;;;;;;;14.50;13.00;;;;;27.01;36.42;100955.94;5048941;28;47555;-87
2021/08/15 00:15:55;;;;;;;;;12.25;11.75;;;;;26.94;36.48;100947.84;5092813;27;48433;-86
2021/08/15 00:18:21;;;;;;;;;13.75;11.25;;;;;27.02;36.85;100963.81;5070470;27;45688;-86
2021/08/15 00:20:47;;;;;;;;;13.00;13.00;;;;;27.00;36.90;100962.34;5051905;28;45874;-86
2021/08/15 00:23:12;;;;;;;;;11.00;11.00;;;;;26.86;37.28;100941.84;5052351;28;48650;-85
2021/08/15 00:25:37;;;;;;;;;14.75;12.75;;;;;27.00;37.13;100963.16;5082973;27;47300;-85
2021/08/15 00:28:03;;;;;;;;;12.50;11.75;;;;;26.93;37.38;100950.78;5070371;28;46196;-85
2021/08/15 00:30:28;;;;;;;;;14.50;12.50;;;;;26.95;37.77;100959.44;5083353;27;45650;-88
2021/08/15 00:32:54;;;;;;;;;14.50;12.50;;;;;26.57;37.16;100902.72;5080391;27;47433;-87
2021/08/15 00:35:20;;;;;;;;;15.00;12.25;;;;;26.87;37.67;100956.94;5062951;28;48257;-87
2021/08/15 00:37:45;;;;;;;;;14.75;13.50;;;;;26.66;37.77;100934.59;5065795;28;45771;-85
2021/08/15 00:40:11;;;;;;;;;14.00;11.75;;;;;26.46;37.86;100906.88;5052429;28;45924;-85
2021/08/15 00:42:38;;;;;;;;;13.25;11.50;;;;;26.62;37.80;100941.41;5061892;28;47485;-86
2021/08/15 00:45:04;;;;;;;;;13.25;12.75;;;;;26.66;37.90;100958.81;5049959;28;48123;-86
2021/08/15 00:47:30;;;;;;;;;13.50;12.50;;;;;26.48;37.89;100939.75;5067237;28;45881;-87
2021/08/15 00:49:58;;;;;;;;;13.50;12.50;;;;;26.46;38.64;100941.81;5075916;27;45976;-85
2021/08/15 00:52:23;;;;;;;;;12.75;11.75;;;;;26.33;38.43;100932.91;5071110;28;46502;-85
2021/08/15 00:54:49;;;;;;;;;14.50;13.50;;;;;26.19;38.21;100913.19;5087316;27;47827;-85
2021/08/15 00:57:14;;;;;;;;;13.00;12.00;;;;;26.37;38.40;100950.25;5062502;27;45667;-84
2021/08/15 00:59:40;;;;;;;;;14.00;12.25;;;;;26.19;38.46;100924.75;5043366;28;45685;-85
2021/08/15 01:02:09;;;;;;;;;15.00;13.00;;;;;26.22;38.76;100939.66;5051342;28;46401;-84
2021/08/15 01:04:37;;;;;;;;;13.50;12.50;;;;;25.96;39.63;100900.13;5051515;28;46101;-87
2021/08/15 01:07:04;;;;;;;;;14.75;13.75;;;;;26.09;39.18;100932.38;5051894;28;45800;-87
2021/08/15 01:09:31;;;;;;;;;14.25;13.75;;;;;25.84;39.17;100891.84;5076219;27;45591;-86
2021/08/15 01:11:57;;;;;;;;;15.50;14.00;;;;;25.92;39.21;100918.50;5068914;28;46663;-85
2021/08/15 01:14:22;;;;;;;;;12.00;12.00;;;;;25.76;39.36;100883.94;5040741;28;47501;-86
2021/08/15 01:16:47;;;;;;;;;13.50;12.00;;;;;25.83;39.38;100910.81;5080568;27;45680;-85
2021/08/15 01:19:14;;;;;;;;;15.00;12.50;;;;;25.77;39.72;100908.94;5065393;27;45860;-85
2021/08/15 01:21:42;;;;;;;;;15.25;13.75;;;;;25.80;39.81;100911.25;5069684;28;48459;-84
2021/08/15 01:24:08;;;;;;;;;13.75;13.00;;;;;25.78;39.86;100916.81;5076472;27;48510;-84
2021/08/15 01:26:34;;;;;;;;;13.25;13.00;;;;;25.77;40.05;100922.34;5057607;27;45757;-86
2021/08/15 01:28:59;;;;;;;;;14.25;13.00;;;;;25.61;40.32;100901.22;5053168;28;45823;-86
2021/08/15 01:31:25;;;;;;;;;13.00;12.00;;;;;25.53;39.89;100887.97;5051684;28;47337;-85
2021/08/15 01:33:51;;;;;;;;;15.00;12.25;;;;;25.70;39.66;100924.19;5070513;27;47239;-84
2021/08/15 01:36:19;;;;;;;;;13.25;12.50;;;;;25.47;40.22;100887.72;5057941;28;45814;-85
2021/08/15 01:38:46;;;;;;;;;13.00;13.00;;;;;25.39;40.39;100885.19;5081258;27;45770;-85
2021/08/15 01:41:12;;;;;;;;;13.25;12.50;;;;;25.40;40.34;100889.56;5066704;28;48671;-84
2021/08/15 01:43:53;;;;;;;;;15.50;14.50;;;;;25.55;40.54;100910.03;5054132;28;46206;-84
2021/08/15 01:46:20;;;;;;;;;14.25;13.00;;;;;25.42;40.37;100900.91;5078631;28;45406;-87
2021/08/15 01:48:46;;;;;;;;;14.00;12.00;;;;;25.39;40.70;100898.63;5074692;28;45785;-86
2021/08/15 01:51:13;;;;;;;;;10.75;10.50;;;;;25.16;40.94;100873.94;5066500;28;45611;-85
2021/08/15 01:53:38;;;;;;;;;12.50;12.25;;;;;25.17;40.69;100872.06;5064827;28;48506;-86
2021/08/15 01:56:04;;;;;;;;;13.75;12.50;;;;;25.30;41.01;100913.22;5062795;28;45682;-86
2021/08/15 01:58:30;;;;;;;;;16.00;14.00;;;;;25.17;41.04;100889.00;5067052;28;45657;-85
2021/08/15 02:00:55;;;;;;;;;11.00;10.25;;;;;25.21;41.08;100909.03;5084128;27;48382;-85
2021/08/15 02:03:21;;;;;;;;;15.25;14.00;;;;;25.09;41.36;100889.16;5069692;27;45621;-84
2021/08/15 02:05:46;;;;;;;;;13.25;13.00;;;;;24.91;41.22;100865.53;5061876;28;45606;-85
2021/08/15 02:08:11;;;;;;;;;17.00;15.00;;;;;25.06;41.51;100895.75;5065781;28;45573;-85
2021/08/15 02:10:37;;;;;;;;;13.25;13.00;;;;;25.02;41.76;100905.19;5063749;28;47559;-85
2021/08/15 02:13:05;;;;;;;;;13.25;12.50;;;;;24.99;41.90;100904.78;5061851;27;46027;-85
2021/08/15 02:15:32;;;;;;;;;15.25;13.50;;;;;24.79;41.96;100869.72;5058050;28;45837;-87
2021/08/15 02:18:03;;;;;;;;;16.25;14.25;;;;;24.52;42.18;100825.81;5096681;27;45848;-86
2021/08/15 02:20:32;;;;;;;;;14.25;13.00;;;;;24.65;42.11;100855.41;5053791;28;48308;-86
2021/08/15 02:22:58;;;;;;;;;13.50;12.00;;;;;24.59;42.64;100858.88;5062152;28;47543;-84
2021/08/15 02:25:25;;;;;;;;;15.50;13.50;;;;;24.71;42.64;100875.25;5052339;28;45724;-85
2021/08/15 02:27:51;;;;;;;;;15.00;14.00;;;;;24.75;42.40;100881.03;5053619;28;46062;-86
2021/08/15 02:30:19;;;;;;;;;13.75;12.75;;;;;24.63;42.85;100865.50;5066203;28;47468;-87
2021/08/15 02:32:44;;;;;;;;;15.00;13.25;;;;;24.51;42.81;100842.09;5070746;28;48368;-85
2021/08/15 02:35:12;;;;;;;;;15.50;11.00;;;;;24.56;42.66;100853.88;5090059;27;45753;-85
2021/08/15 02:37:38;;;;;;;;;16.25;12.25;;;;;24.54;42.80;100860.47;5091422;27;46181;-84
2021/08/15 02:40:05;;;;;;;;;14.00;13.50;;;;;24.47;42.95;100848.88;5050809;28;49205;-86
2021/08/15 02:42:33;;;;;;;;;14.50;12.25;;;;;24.46;43.23;100849.88;5047852;28;46072;-86
2021/08/15 02:44:59;;;;;;;;;13.00;12.00;;;;;24.32;43.49;100832.06;5056116;28;46002;-85
2021/08/15 02:47:24;;;;;;;;;15.75;14.25;;;;;24.42;43.34;100844.09;5059671;28;45657;-85
2021/08/15 02:49:49;;;;;;;;;12.50;11.50;;;;;24.27;43.34;100827.28;5096520;27;47317;-88
2021/08/15 02:52:16;;;;;;;;;13.00;12.00;;;;;24.40;43.63;100842.66;5087038;28;46906;-85
2021/08/15 02:54:42;;;;;;;;;13.00;11.00;;;;;24.42;43.64;100837.91;5071908;28;45354;-85
2021/08/15 02:57:08;;;;;;;;;13.50;12.00;;;;;24.49;43.66;100852.19;5069157;28;45855;-88
2021/08/15 02:59:39;;;;;;;;;13.75;12.00;;;;;24.35;43.68;100831.66;5067189;28;46222;-85
2021/08/15 03:02:14;;;;;;;;;14.00;13.00;;;;;24.29;43.51;100825.25;5077228;28;47309;-88
2021/08/15 03:04:40;;;;;;;;;14.00;12.75;;;;;24.22;43.77;100800.25;5070619;27;45807;-87
2021/08/15 03:07:05;;;;;;;;;14.25;13.50;;;;;24.50;43.71;100843.13;5058019;28;45836;-88
2021/08/15 03:09:30;;;;;;;;;15.25;12.50;;;;;24.11;44.29;100788.19;5069820;28;45654;-87
2021/08/15 03:11:56;;;;;;;;;11.75;11.50;;;;;24.38;44.06;100842.81;5067633;27;46847;-91
2021/08/15 03:14:22;;;;;;;;;15.00;13.25;;;;;24.37;44.48;100840.34;5062656;28;45684;-89
2021/08/15 03:16:48;;;;;;;;;15.50;12.75;;;;;24.10;44.12;100807.94;5080928;28;45673;-89
2021/08/15 03:19:13;;;;;;;;;12.25;11.25;;;;;24.13;43.95;100810.22;5101950;27;47650;-90
2021/08/15 03:21:39;;;;;;;;;15.00;13.25;;;;;24.17;44.56;100818.72;5102038;27;47273;-88
2021/08/15 03:24:05;;;;;;;;;15.25;13.50;;;;;24.22;44.65;100832.38;5064833;28;45811;-87
2021/08/15 03:26:36;;;;;;;;;15.00;14.00;;;;;23.96;44.63;100794.63;5076708;27;45969;-87
2021/08/15 03:29:01;;;;;;;;;15.50;13.50;;;;;24.01;44.78;100794.88;5063836;28;48827;-88
2021/08/15 03:31:27;;;;;;;;;11.75;11.00;;;;;23.94;45.11;100791.28;5061848;28;48162;-86
2021/08/15 03:33:52;;;;;;;;;14.25;12.50;;;;;24.03;44.92;100815.06;5063160;28;46152;-87
2021/08/15 03:36:17;;;;;;;;;13.25;12.50;;;;;24.08;45.01;100831.38;5088534;27;45858;-88
2021/08/15 03:38:43;;;;;;;;;11.25;11.00;;;;;23.91;44.82;100808.59;5063223;28;45694;-88
2021/08/15 03:41:08;;;;;;;;;13.50;12.50;;;;;24.02;44.96;100832.13;5073730;27;45838;-87
2021/08/15 03:43:34;;;;;;;;;12.00;10.00;;;;;23.97;45.15;100823.06;5064356;27;45661;-87
2021/08/15 03:45:59;;;;;;;;;11.75;10.75;;;;;23.91;45.04;100831.84;5054096;28;45942;-87
2021/08/15 03:48:25;;;;;;;;;13.25;13.25;;;;;23.61;45.74;100793.63;5048493;28;45688;-86
2021/08/15 03:50:50;;;;;;;;;12.50;12.50;;;;;23.79;45.42;100815.44;5081282;27;48368;-85
2021/08/15 03:53:15;;;;;;;;;12.75;11.75;;;;;23.67;45.96;100815.13;5054284;28;45657;-86
2021/08/15 03:55:41;;;;;;;;;14.00;11.75;;;;;23.73;45.66;100834.94;5055615;28;45947;-86
2021/08/15 03:58:06;;;;;;;;;15.00;13.25;;;;;23.68;46.28;100821.28;5070080;28;48385;-85
2021/08/15 04:00:32;;;;;;;;;12.75;12.00;;;;;23.60;45.77;100816.03;5054119;28;48140;-86
2021/08/15 04:02:58;;;;;;;;;12.00;11.75;;;;;23.35;45.69;100781.59;5080657;27;46109;-85
2021/08/15 04:05:23;;;;;;;;;13.25;12.50;;;;;23.35;46.70;100794.97;5050058;28;45648;-85
2021/08/15 04:07:49;;;;;;;;;13.25;12.25;;;;;23.41;46.48;100812.09;5061519;28;46465;-85
2021/08/15 04:10:15;;;;;;;;;11.25;11.00;;;;;23.50;46.05;100823.53;5087522;27;47248;-85
2021/08/15 04:12:40;;;;;;;;;13.00;12.50;;;;;23.31;46.73;100798.19;5068054;28;45810;-86
2021/08/15 04:15:06;;;;;;;;;14.00;14.00;;;;;23.42;47.17;100819.13;5057230;28;45837;-86
2021/08/15 04:17:31;;;;;;;;;12.75;12.00;;;;;23.36;46.56;100823.38;5052080;28;45700;-85
2021/08/15 04:19:57;;;;;;;;;11.75;11.75;;;;;23.34;47.48;100819.22;5053251;28;46302;-86
2021/08/15 04:22:22;;;;;;;;;14.00;14.00;;;;;23.12;46.91;100785.41;5052930;28;45675;-86
2021/08/15 04:24:47;;;;;;;;;11.75;11.50;;;;;23.04;47.13;100769.47;5049053;28;45667;-85
2021/08/15 04:27:13;;;;;;;;;11.75;11.75;;;;;23.09;46.83;100769.75;5094959;27;46423;-85
2021/08/15 04:29:39;;;;;;;;;12.00;11.00;;;;;23.10;47.59;100771.41;5073086;27;46572;-85
2021/08/15 04:32:08;;;;;;;;;10.75;9.50;;;;;22.93;47.73;100752.06;5058388;28;45942;-85
2021/08/15 04:34:57;;;;;;;;;14.75;14.00;;;;;23.23;47.24;100795.63;5073238;28;45716;-86
2021/08/15 04:37:22;;;;;;;;;14.00;13.25;;;;;22.87;47.57;100740.28;5071242;28;45822;-85
2021/08/15 04:39:48;;;;;;;;;13.50;10.00;;;;;23.04;47.62;100775.66;5059628;28;46312;-85
2021/08/15 04:42:13;;;;;;;;;13.75;13.00;;;;;22.63;47.45;100716.47;5068576;28;45817;-86
2021/08/15 04:44:39;;;;;;;;;12.50;12.25;;;;;23.14;47.73;100807.44;5074406;28;46037;-85
2021/08/15 04:47:04;;;;;;;;;14.50;12.00;;;;;23.12;47.68;100804.09;5056440;28;45688;-85
2021/08/15 04:49:30;;;;;;;;;12.00;11.50;;;;;23.10;47.84;100798.13;5067993;28;47292;-85
2021/08/15 04:51:56;;;;;;;;;16.75;13.00;;;;;22.83;48.27;100770.22;5068106;28;45724;-84
2021/08/15 04:54:28;;;;;;;;;16.00;13.00;;;;;22.81;48.16;100775.75;5095843;27;45716;-85
2021/08/15 04:56:55;;;;;;;;;14.25;11.25;;;;;22.84;48.39;100779.88;5063201;28;47560;-85
2021/08/15 04:59:20;;;;;;;;;11.75;11.00;;;;;22.68;48.19;100755.97;5109818;27;47142;-86
2021/08/15 05:01:45;;;;;;;;;13.50;12.00;;;;;22.81;48.10;100786.44;5095416;27;45651;-86
2021/08/15 05:04:11;;;;;;;;;13.00;12.00;;;;;22.92;48.84;100801.19;5083202;27;45819;-86
2021/08/15 05:06:36;;;;;;;;;12.50;11.00;;;;;22.91;48.71;100794.16;5062819;28;45840;-86
2021/08/15 05:09:03;;;;;;;;;12.50;11.00;;;;;22.91;48.85;100796.84;5081980;27;47506;-86
2021/08/15 05:11:28;;;;;;;;;13.25;12.50;;;;;22.89;48.93;100799.69;5060802;28;45780;-87
2021/08/15 05:13:54;;;;;;;;;14.00;12.00;;;;;22.90;48.35;100808.53;5047622;28;45872;-86
2021/08/15 05:16:19;;;;;;;;;13.75;12.25;;;;;22.91;48.70;100811.03;5054083;28;45941;-81
2021/08/15 05:18:45;;;;;;;;;11.50;10.50;;;;;22.79;49.11;100783.09;5067132;27;46055;-80
2021/08/15 05:21:10;;;;;;;;;9.75;9.50;;;;;22.92;49.07;100801.19;5051190;28;45704;-83
2021/08/15 05:23:35;;;;;;;;;13.50;11.50;;;;;22.91;48.72;100802.19;5055215;28;45818;-82
2021/08/15 05:26:01;;;;;;;;;13.25;10.75;;;;;22.76;48.88;100774.63;5059091;27;46514;-86
2021/08/15 05:28:26;;;;;;;;;9.00;8.75;;;;;22.81;48.92;100786.44;5063841;28;46185;-80
2021/08/15 05:30:52;;;;;;;;;12.00;10.00;;;;;22.86;49.10;100805.41;5056030;28;45985;-87
2021/08/15 05:33:24;;;;;;;;;11.75;10.25;;;;;22.78;49.23;100791.31;5061552;28;45570;-90
2021/08/15 05:35:49;;;;;;;;;13.50;12.25;;;;;22.81;49.59;100788.28;5060943;28;46278;-85
2021/08/15 05:38:15;;;;;;;;;11.75;10.50;;;;;22.81;49.67;100796.28;5077986;28;45578;-88
2021/08/15 05:40:40;;;;;;;;;11.00;10.00;;;;;22.77;49.40;100790.50;5073260;28;45684;-82
2021/08/15 05:43:06;;;;;;;;;12.75;10.00;;;;;22.69;49.86;100784.34;5076336;27;45671;-85
2021/08/15 05:45:31;;;;;;;;;14.00;11.50;;;;;22.73;49.49;100789.19;5066721;27;46929;-85
2021/08/15 05:47:56;;;;;;;;;11.00;10.75;;;;;22.73;49.64;100788.34;5078726;28;46109;-85
2021/08/15 05:50:22;;;;;;;;;12.00;10.25;;;;;22.71;49.94;100798.38;5073063;27;45722;-82
2021/08/15 05:52:47;;;;;;;;;12.00;10.75;;;;;22.64;49.67;100776.06;5097568;27;45734;-85
2021/08/15 05:55:13;;;;;;;;;10.25;9.25;;;;;22.72;49.54;100794.72;5083600;27;45948;-85
2021/08/15 05:57:38;;;;;;;;;11.75;11.25;;;;;22.59;49.69;100769.44;5066773;27;46121;-89
2021/08/15 06:00:08;;;;;;;;;14.50;9.75;;;;;22.69;49.62;100790.53;5073049;28;45792;-82
2021/08/15 06:02:33;;;;;;;;;11.25;9.75;;;;;22.71;49.92;100795.69;5080613;28;45628;-83
2021/08/15 06:04:59;;;;;;;;;10.00;8.00;;;;;22.60;50.23;100781.78;5066681;27;46686;-82
2021/08/15 06:07:24;;;;;;;;;13.25;10.50;;;;;22.59;49.92;100773.94;5055102;28;48443;-82
2021/08/15 06:09:49;;;;;;;;;9.00;7.75;;;;;22.61;49.89;100777.28;5066835;28;45775;-82
2021/08/15 06:12:15;;;;;;;;;10.50;9.75;;;;;22.66;50.28;100782.91;5068640;27;45839;-83
2021/08/15 06:14:40;;;;;;;;;11.75;10.00;;;;;22.58;50.08;100765.09;5075220;27;48569;-81
2021/08/15 06:17:06;;;;;;;;;10.75;10.25;;;;;22.69;50.44;100779.00;5081470;27;47951;-81
2021/08/15 06:19:32;;;;;;;;;12.50;10.25;;;;;22.77;50.65;100790.50;5086643;27;46043;-83
2021/08/15 06:22:00;;;;;;;;;11.50;10.25;;;;;22.57;50.54;100754.59;5049286;28;45764;-82
2021/08/15 06:24:25;;;;;;;;;10.25;9.50;;;;;22.71;50.70;100785.00;5053118;28;45940;-83
2021/08/15 06:26:50;;;;;;;;;12.75;11.25;;;;;22.68;50.11;100778.19;5055273;28;45907;-82
2021/08/15 06:29:16;;;;;;;;;12.25;11.00;;;;;22.74;50.70;100793.50;5055316;28;46111;-83
2021/08/15 06:31:42;;;;;;;;;12.50;11.00;;;;;22.79;50.66;100796.47;5054387;28;45656;-83
2021/08/15 06:34:08;;;;;;;;;11.50;9.00;;;;;22.77;50.55;100789.66;5052808;28;45746;-83
2021/08/15 06:36:33;;;;;;;;;10.75;9.75;;;;;22.79;50.45;100790.28;5054376;28;46132;-83
2021/08/15 06:38:59;;;;;;;;;12.25;10.50;;;;;22.72;50.93;100782.19;5044549;28;45856;-83
2021/08/15 06:41:24;;;;;;;;;9.75;9.25;;;;;22.87;50.26;100798.22;5050891;28;45888;-83
2021/08/15 06:43:50;;;;;;;;;11.50;10.75;;;;;22.80;50.86;100781.25;5052040;28;45639;-83
2021/08/15 06:46:16;;;;;;;;;10.50;9.75;;;;;22.88;50.38;100790.03;5052823;28;47144;-83
2021/08/15 06:48:44;;;;;;;;;12.75;11.25;;;;;22.87;50.96;100777.69;5053766;28;45767;-83
2021/08/15 06:51:11;;;;;;;;;10.25;10.25;;;;;22.94;51.07;100783.13;5053836;28;45834;-82
2021/08/15 06:53:38;;;;;;;;;12.00;10.25;;;;;22.96;51.15;100783.75;5052162;28;46358;-84
2021/08/15 06:56:05;;;;;;;;;10.50;9.75;;;;;22.97;50.65;100791.59;5053268;28;46165;-83
2021/08/15 06:58:32;;;;;;;;;9.25;8.00;;;;;23.00;50.95;100785.88;5052084;28;45666;-84
2021/08/15 07:00:58;;;;;;;;;9.75;8.25;;;;;22.98;50.91;100777.22;5055030;28;45888;-82
2021/08/15 07:03:23;;;;;;;;;8.75;7.50;;;;;23.07;50.83;100798.50;5053813;28;46032;-83
2021/08/15 07:05:49;;;;;;;;;13.25;12.00;;;;;23.12;50.19;100794.25;5053238;28;45681;-83
2021/08/15 07:08:15;;;;;;;;;12.00;10.50;;;;;23.12;50.27;100782.72;5053478;28;46017;-82
2021/08/15 07:10:40;;;;;;;;;11.50;10.50;;;;;23.09;50.43;100775.91;5053177;28;45759;-83
2021/08/15 07:13:07;;;;;;;;;9.00;8.25;;;;;23.20;50.75;100791.50;5051287;28;45597;-83
2021/08/15 07:15:33;;;;;;;;;13.25;11.25;;;;;23.23;50.42;100799.13;5039422;28;46415;-83
2021/08/15 07:17:59;;;;;;;;;12.75;12.75;;;;;23.26;50.82;100800.59;5053033;28;45823;-84
2021/08/15 07:20:24;;;;;;;;;14.50;11.75;;;;;23.19;50.69;100791.66;5053418;28;45646;-83
2021/08/15 07:22:50;;;;;;;;;13.00;12.00;;;;;23.30;51.03;100802.72;5053050;28;46321;-83
2021/08/15 07:25:16;;;;;;;;;12.25;12.00;;;;;23.28;50.95;100798.56;5052773;28;46877;-82
2021/08/15 07:27:42;;;;;;;;;12.00;10.75;;;;;23.33;51.20;100799.66;5086244;27;45761;-83
2021/08/15 07:30:11;;;;;;;;;16.25;14.00;;;;;23.24;50.94;100784.75;5080321;27;45686;-83
2021/08/15 07:32:58;;;;;;;;;11.00;11.00;;;;;23.39;50.60;100798.91;5056393;28;45700;-83
2021/08/15 07:35:25;;;;;;;;;12.75;12.00;;;;;23.39;51.07;100793.56;5061926;28;46059;-83
2021/08/15 07:37:51;;;;;;;;;13.25;11.25;;;;;23.44;50.63;100796.50;5056881;28;46131;-83
2021/08/15 07:40:17;;;;;;;;;12.00;11.50;;;;;23.52;50.66;100795.59;5057798;28;46022;-82
2021/08/15 07:42:43;;;;;;;;;11.75;11.25;;;;;23.47;50.50;100771.28;5052865;28;48748;-83
2021/08/15 07:45:09;;;;;;;;;11.75;11.00;;;;;23.63;50.38;100788.94;5052809;28;46225;-83
2021/08/15 07:47:35;;;;;;;;;12.50;11.00;;;;;23.68;49.97;100784.66;5040983;28;46006;-83
2021/08/15 07:50:01;;;;;;;;;13.25;11.25;;;;;23.60;50.50;100773.25;5052448;28;45688;-83
2021/08/15 07:52:26;;;;;;;;;12.50;11.00;;;;;23.71;50.55;100776.25;5067051;28;48828;-83
2021/08/15 07:54:52;;;;;;;;;12.50;11.25;;;;;23.84;50.08;100796.97;5050818;28;45831;-82
2021/08/15 07:57:19;;;;;;;;;12.00;9.75;;;;;23.76;50.65;100771.16;5046897;28;46238;-83
2021/08/15 07:59:44;;;;;;;;;14.75;11.75;;;;;23.95;50.12;100796.47;5052307;28;45688;-82
2021/08/15 08:02:09;;;;;;;;;12.75;12.75;;;;;24.01;49.76;100795.72;5051891;28;47569;-83
2021/08/15 08:04:37;;;;;;;;;11.50;10.00;;;;;23.91;49.51;100770.28;5049779;27;45702;-83
2021/08/15 08:07:04;;;;;;;;;13.75;13.00;;;;;24.13;49.76;100780.75;5053596;28;46161;-83
2021/08/15 08:09:29;;;;;;;;;12.75;12.00;;;;;24.06;49.71;100766.50;5105571;27;45888;-83
2021/08/15 08:11:55;;;;;;;;;10.00;9.25;;;;;24.25;49.91;100781.09;5058000;28;46902;-83
2021/08/15 08:14:22;;;;;;;;;12.25;10.00;;;;;24.19;49.85;100765.81;5076757;27;47319;-82
2021/08/15 08:16:47;;;;;;;;;12.50;11.25;;;;;24.17;49.59;100752.63;5060569;28;45763;-83
2021/08/15 08:19:13;;;;;;;;;12.75;10.50;;;;;24.41;49.38;100779.97;5060531;28;46199;-83
2021/08/15 08:21:38;;;;;;;;;10.75;9.75;;;;;24.34;49.84;100763.06;5057491;27;45734;-82
2021/08/15 08:24:06;;;;;;;;;11.25;10.25;;;;;24.39;49.65;100764.13;5069215;28;48487;-83
2021/08/15 08:26:32;;;;;;;;;13.50;12.00;;;;;24.50;49.83;100768.13;5056921;27;45641;-83
2021/08/15 08:28:57;;;;;;;;;12.50;12.50;;;;;24.51;49.47;100746.47;5095793;27;45773;-83
2021/08/15 08:31:23;;;;;;;;;12.00;11.00;;;;;24.61;49.44;100749.66;5065631;28;45972;-83
2021/08/15 08:33:48;;;;;;;;;13.75;13.50;;;;;24.62;49.09;100750.44;5056842;27;46079;-83
2021/08/15 08:36:13;;;;;;;;;15.25;14.00;;;;;24.71;49.14;100760.00;5076869;27;45718;-83
2021/08/15 08:38:39;;;;;;;;;12.25;11.50;;;;;24.74;48.76;100754.25;5044918;28;45752;-83
2021/08/15 08:41:05;;;;;;;;;11.75;11.75;;;;;24.85;48.96;100763.56;5064078;28;46613;-83
2021/08/15 08:43:31;;;;;;;;;9.50;9.00;;;;;24.80;48.94;100736.53;5050138;28;46041;-83
2021/08/15 08:45:59;;;;;;;;;11.50;11.00;;;;;24.98;48.59;100761.00;5064272;28;45731;-83
2021/08/15 08:48:25;;;;;;;;;13.50;11.50;;;;;25.01;48.70;100753.38;5057980;28;45975;-83
2021/08/15 08:50:52;;;;;;;;;13.50;12.25;;;;;25.17;48.58;100768.31;5070316;27;45734;-84
2021/08/15 08:53:17;;;;;;;;;12.25;11.25;;;;;25.14;48.30;100757.16;5062677;27;45956;-84
2021/08/15 08:55:43;;;;;;;;;13.00;11.25;;;;;25.25;48.60;100764.63;5051312;28;45780;-83
2021/08/15 08:58:09;;;;;;;;;12.75;11.75;;;;;25.21;48.29;100747.28;5062593;28;46020;-83
2021/08/15 09:00:34;;;;;;;;;11.50;10.50;;;;;25.41;48.40;100766.97;5062574;28;46444;-83
2021/08/15 09:02:59;;;;;;;;;14.25;12.00;;;;;25.49;48.25;100758.72;5050767;28;45828;-83
2021/08/15 09:05:34;;;;;;;;;13.50;12.25;;;;;25.58;47.97;100764.78;5050349;28;45736;-83
2021/08/15 09:08:00;;;;;;;;;12.25;11.00;;;;;25.50;47.59;100731.69;5075542;27;45705;-83
2021/08/15 09:10:31;;;;;;;;;11.25;10.00;;;;;25.71;47.96;100751.34;5059289;27;46320;-83
2021/08/15 09:13:02;;;;;;;;;11.25;10.75;;;;;25.73;48.35;100747.47;5052673;27;45728;-82
2021/08/15 09:15:28;;;;;;;;;13.75;11.75;;;;;25.84;47.87;100749.53;5042053;28;45989;-82
2021/08/15 09:17:54;;;;;;;;;12.00;10.00;;;;;25.90;47.95;100754.09;5052466;28;45612;-82
2021/08/15 09:20:35;;;;;;;;;12.25;11.50;;;;;25.94;47.99;100738.38;5056647;28;45845;-82
2021/08/15 09:23:17;;;;;;;;;12.00;11.25;;;;;26.02;48.08;100724.72;5079978;28;46412;-83
2021/08/15 09:25:43;;;;;;;;;13.50;12.75;;;;;26.07;47.88;100729.50;5067506;27;45727;-82
2021/08/15 09:28:08;;;;;;;;;12.25;11.75;;;;;26.02;47.59;100707.81;5069896;28;45767;-82
2021/08/15 09:30:33;;;;;;;;;12.00;11.50;;;;;26.07;47.46;100706.16;5067483;27;47698;-83
2021/08/15 09:33:05;;;;;;;;;11.75;10.50;;;;;26.31;47.82;100721.66;5051038;28;46820;-83
2021/08/15 09:35:36;;;;;;;;;14.75;12.25;;;;;26.36;47.98;100730.94;5051116;28;45766;-83
2021/08/15 09:38:06;;;;;;;;;12.50;11.00;;;;;26.45;47.27;100729.72;5064229;28;45625;-84
2021/08/15 09:40:34;;;;;;;;;12.00;11.50;;;;;26.50;47.66;100728.06;5050935;28;46672;-84
2021/08/15 09:43:02;;;;;;;;;12.25;12.00;;;;;26.47;47.94;100706.13;5053331;28;47154;-83
2021/08/15 09:45:34;;;;;;;;;15.50;13.75;;;;;26.51;47.25;100702.78;5060081;27;45700;-83
2021/08/15 09:48:27;;;;;;;;;13.75;13.00;;;;;26.70;47.21;100714.53;5054846;28;45880;-83
2021/08/15 09:51:04;;;;;;;;;14.25;12.25;;;;;26.78;47.90;100717.00;5083861;27;48464;-84
2021/08/15 09:53:30;;;;;;;;;14.50;13.75;;;;;26.67;47.33;100691.59;5060464;28;45762;-84
2021/08/15 09:55:57;;;;;;;;;12.50;12.00;;;;;26.90;47.24;100712.63;5069025;27;45737;-84
2021/08/15 09:58:22;;;;;;;;;12.75;11.50;;;;;26.96;47.44;100717.16;5060568;27;45835;-84
2021/08/15 10:00:48;;;;;;;;;14.75;12.75;;;;;27.01;47.34;100713.84;5062772;28;45911;-84
2021/08/15 10:03:16;;;;;;;;;12.00;11.25;;;;;26.96;47.50;100692.97;5058558;28;47698;-82
2021/08/15 10:05:43;;;;;;;;;13.00;12.00;;;;;27.12;47.39;100718.53;5068058;28;45598;-84
2021/08/15 10:08:09;;;;;;;;;11.50;11.50;;;;;27.03;46.82;100701.00;5102765;27;46010;-83
2021/08/15 10:10:36;;;;;;;;;13.50;13.25;;;;;27.16;46.99;100703.63;5088318;27;47474;-84
2021/08/15 10:13:02;;;;;;;;;16.50;14.00;;;;;27.11;47.09;100676.53;5092842;27;47254;-83
2021/08/15 10:15:30;;;;;;;;;11.50;11.50;;;;;27.36;46.85;100701.66;5057237;28;45704;-83
2021/08/15 10:17:57;;;;;;;;;11.50;11.50;;;;;27.41;46.33;100699.16;5062755;27;45870;-82
2021/08/15 10:20:28;;;;;;;;;11.75;11.75;;;;;27.46;46.58;100698.50;5044684;28;45790;-84
2021/08/15 10:23:04;;;;;;;;;10.75;10.25;;;;;27.48;46.07;100683.75;5052924;28;47240;-84
2021/08/15 10:25:38;;;;;;;;;12.75;11.75;;;;;27.67;46.25;100700.03;5069337;27;45954;-82
2021/08/15 10:28:05;;;;;;;;;11.00;10.00;;;;;27.55;46.00;100667.59;5066710;28;45946;-84
2021/08/15 10:30:30;;;;;;;;;10.50;10.25;;;;;27.79;45.34;100695.59;5066505;28;45984;-84
2021/08/15 10:32:55;;;;;;;;;12.25;10.75;;;;;27.85;45.64;100686.63;5060391;28;46295;-84
2021/08/15 10:35:31;;;;;;;;;13.00;12.00;;;;;27.92;45.22;100682.81;5055223;28;45664;-84
2021/08/15 10:38:05;;;;;;;;;13.25;12.50;;;;;27.89;45.54;100668.97;5074572;28;45665;-83
2021/08/15 10:40:45;;;;;;;;;11.50;11.25;;;;;28.08;45.24;100672.53;5071353;28;47054;-83
2021/08/15 10:43:35;;;;;;;;;9.00;8.75;;;;;28.13;44.65;100668.16;5087061;27;46416;-81
2021/08/15 10:46:11;;;;;;;;;9.75;9.00;;;;;28.22;43.75;100668.72;5068358;28;46047;-82
2021/08/15 10:48:58;;;;;;;;;8.50;8.50;;;;;28.29;43.37;100672.97;5063834;27;45956;-82
2021/08/15 10:51:45;;;;;;;;;9.50;8.50;;;;;28.37;43.07;100667.28;5059052;28;46902;-83
2021/08/15 10:54:26;;;;;;;;;10.50;9.00;;;;;28.44;42.53;100664.53;5063627;27;47418;-83
2021/08/15 10:56:53;;;;;;;;;8.75;8.50;;;;;28.49;42.78;100659.28;5069635;28;46111;-82
2021/08/15 10:59:36;;;;;;;;;10.50;8.50;;;;;28.56;42.31;100660.00;5081910;27;45888;-83
2021/08/15 11:02:14;;;;;;;;;10.75;10.00;;;;;28.60;42.26;100655.00;5064524;28;47531;-82
2021/08/15 11:04:54;;;;;;;;;11.00;9.25;;;;;28.66;42.24;100654.94;5064264;27;46378;-83
2021/08/15 11:07:39;;;;;;;;;11.00;11.00;;;;;28.72;42.43;100659.44;5066057;28;45778;-83
2021/08/15 11:10:09;;;;;;;;;10.50;10.00;;;;;28.60;42.34;100622.66;5051329;28;45870;-83